Time;durP1;ratioP1;P1;durP2;ratioP2;P2;SDS_P1;SDS_P2;PMS_P1;PMS_P2;Temp;Humidity;BMP_temperature;BMP_pressure;BME280_temperature;BME280_humidity;BME280_pressure;Samples;Min_cycle;Max_cycle;Signal;HPM_P1;HPM_P2
2022/10/13 00:00:26;;;;;;;1999.90;999.90;;;;;;;11.05;100.00;98627.44;4958266;28;20179;-72
2022/10/13 00:02:53;;;;;;;1999.90;999.90;;;;;;;10.97;100.00;98636.22;4955605;29;20094;-72
2022/10/13 00:05:18;;;;;;;1999.90;999.90;;;;;;;10.98;100.00;98632.41;4955311;28;20043;-71
2022/10/13 00:07:43;;;;;;;1999.90;999.90;;;;;;;10.76;100.00;98635.50;4955167;29;20378;-72
2022/10/13 00:10:09;;;;;;;1999.90;999.90;;;;;;;10.92;100.00;98634.34;4955349;29;20031;-72
2022/10/13 00:12:36;;;;;;;1999.90;999.90;;;;;;;10.98;100.00;98643.34;4955446;28;20023;-72
2022/10/13 00:15:03;;;;;;;1999.90;999.90;;;;;;;10.88;100.00;98637.91;4955519;28;20454;-72
2022/10/13 00:17:29;;;;;;;1999.90;999.90;;;;;;;10.79;100.00;98621.25;4955427;28;20106;-72
2022/10/13 00:19:54;;;;;;;1999.90;999.90;;;;;;;10.80;100.00;98635.78;4955450;29;20481;-72
2022/10/13 00:22:19;;;;;;;1999.90;999.90;;;;;;;10.79;100.00;98634.94;4955007;29;20073;-71
2022/10/13 00:24:50;;;;;;;1999.90;999.90;;;;;;;10.89;100.00;98640.38;4955218;28;20047;-72
2022/10/13 00:27:15;;;;;;;1999.90;999.90;;;;;;;10.92;100.00;98644.47;4954459;28;20024;-73
2022/10/13 00:29:40;;;;;;;1999.90;999.90;;;;;;;10.82;100.00;98647.25;4952126;28;20117;-72
2022/10/13 00:32:06;;;;;;;1999.90;999.90;;;;;;;10.75;100.00;98650.28;4964542;28;20608;-73
2022/10/13 00:34:31;;;;;;;1999.90;999.90;;;;;;;10.55;100.00;98639.41;4954044;28;20019;-72
2022/10/13 00:36:56;;;;;;;1999.90;999.90;;;;;;;10.43;100.00;98638.91;4964583;28;20081;-72
2022/10/13 00:39:22;;;;;;;1999.90;999.90;;;;;;;10.38;100.00;98627.97;4972951;28;20031;-72
2022/10/13 00:41:47;;;;;;;1999.90;999.90;;;;;;;10.36;100.00;98628.25;4973739;28;20067;-73
2022/10/13 00:44:50;;;;;;;1999.90;999.90;;;;;;;10.28;100.00;98628.81;4972638;28;20101;-72
2022/10/13 00:47:16;;;;;;;1999.90;999.90;;;;;;;10.21;100.00;98633.75;4974690;28;20484;-73
2022/10/13 00:49:41;;;;;;;1999.90;999.90;;;;;;;10.09;100.00;98619.50;4960645;28;20516;-73
2022/10/13 00:52:07;;;;;;;1999.90;999.90;;;;;;;10.03;100.00;98617.88;4955796;29;20027;-73
2022/10/13 00:54:32;;;;;;;1999.90;999.90;;;;;;;9.99;100.00;98625.81;4956246;29;20107;-73
2022/10/13 00:56:58;;;;;;;1999.90;999.90;;;;;;;10.01;100.00;98622.81;4954401;29;20038;-71
2022/10/13 00:59:27;;;;;;;1999.90;999.90;;;;;;;9.99;100.00;98614.88;4983161;28;20030;-72
2022/10/13 01:01:54;;;;;;;1999.90;999.90;;;;;;;9.88;100.00;98606.97;4992682;28;20035;-72
2022/10/13 01:04:24;;;;;;;1999.90;999.90;;;;;;;9.92;100.00;98613.53;4993076;28;20034;-73
2022/10/13 01:06:51;;;;;;;1999.90;999.90;;;;;;;9.85;100.00;98607.53;4992970;28;20042;-73
2022/10/13 01:09:16;;;;;;;1999.90;999.90;;;;;;;9.83;100.00;98605.06;4991804;28;20034;-72
2022/10/13 01:12:02;;;;;;;1999.90;999.90;;;;;;;10.19;100.00;98612.16;4992951;28;20037;-72
2022/10/13 01:14:43;;;;;;;1999.90;999.90;;;;;;;10.08;100.00;98602.31;4992503;28;20030;-73
2022/10/13 01:17:29;;;;;;;1999.90;999.90;;;;;;;10.09;100.00;98609.41;4993055;28;20046;-73
2022/10/13 01:20:17;;;;;;;1999.90;999.90;;;;;;;10.07;100.00;98608.03;4991425;28;20034;-73
2022/10/13 01:22:54;;;;;;;1999.90;999.90;;;;;;;10.32;100.00;98602.56;4992172;28;20054;-73
2022/10/13 01:25:25;;;;;;;1999.90;999.90;;;;;;;10.42;100.00;98602.53;4991939;28;20042;-73
2022/10/13 01:28:09;;;;;;;1999.90;999.90;;;;;;;10.43;100.00;98589.69;4992886;28;20483;-73
2022/10/13 01:30:40;;;;;;;1999.90;999.90;;;;;;;10.32;100.00;98588.06;4992563;28;20508;-72
2022/10/13 01:33:36;;;;;;;1999.90;999.90;;;;;;;10.27;100.00;98591.66;4992521;28;20121;-71
2022/10/13 01:36:14;;;;;;;1999.90;999.90;;;;;;;10.22;100.00;98597.09;4991249;28;20061;-72
2022/10/13 01:39:06;;;;;;;1999.90;999.90;;;;;;;10.27;100.00;98594.38;4992408;28;20022;-72
2022/10/13 01:41:40;;;;;;;1999.90;999.90;;;;;;;10.27;100.00;98590.81;4992104;28;20488;-73
2022/10/13 01:44:30;;;;;;;1999.90;999.90;;;;;;;10.27;100.00;98588.91;4992200;28;20030;-73
2022/10/13 01:46:56;;;;;;;1999.90;999.90;;;;;;;10.22;100.00;98586.16;4992300;28;20036;-72
2022/10/13 01:49:25;;;;;;;1999.90;999.90;;;;;;;10.21;100.00;98592.75;4992148;28;20057;-72
2022/10/13 01:51:53;;;;;;;1999.90;999.90;;;;;;;10.21;100.00;98593.53;4991646;28;20029;-72
2022/10/13 01:54:19;;;;;;;1999.90;999.90;;;;;;;10.15;100.00;98591.91;4992662;28;20169;-73
2022/10/13 01:56:54;;;;;;;1999.90;999.90;;;;;;;10.07;100.00;98595.19;4996041;28;20058;-73
2022/10/13 01:59:22;;;;;;;1999.90;999.90;;;;;;;10.07;100.00;98589.75;4995314;28;20085;-73
2022/10/13 02:02:05;;;;;;;1999.90;999.90;;;;;;;10.13;100.00;98582.34;4992191;28;20081;-72
2022/10/13 02:04:32;;;;;;;1999.90;999.90;;;;;;;10.17;100.00;98578.81;4992058;28;20030;-73
2022/10/13 02:07:19;;;;;;;1999.90;999.90;;;;;;;10.31;100.00;98580.94;4991896;28;20053;-73
2022/10/13 02:09:44;;;;;;;1999.90;999.90;;;;;;;10.39;100.00;98573.00;4992141;28;20567;-73
2022/10/13 02:12:33;;;;;;;1999.90;999.90;;;;;;;10.56;100.00;98573.47;4991818;28;20016;-73
2022/10/13 02:15:02;;;;;;;1999.90;999.90;;;;;;;10.62;100.00;98580.56;4992071;28;20275;-73
2022/10/13 02:17:28;;;;;;;1999.90;999.90;;;;;;;10.59;100.00;98577.56;4991918;28;20049;-73
2022/10/13 02:19:54;;;;;;;1999.90;999.90;;;;;;;10.75;100.00;98570.94;4991920;28;20030;-72
2022/10/13 02:22:23;;;;;;;1999.90;999.90;;;;;;;10.73;100.00;98576.69;4991956;28;20030;-73
2022/10/13 02:24:48;;;;;;;1999.90;999.90;;;;;;;10.75;100.00;98569.00;4991886;28;20034;-73
2022/10/13 02:27:13;;;;;;;1999.90;999.90;;;;;;;10.81;100.00;98572.53;4991249;28;20080;-73
2022/10/13 02:29:54;;;;;;;1999.90;999.90;;;;;;;10.88;100.00;98561.28;4991170;28;20025;-73
2022/10/13 02:32:20;;;;;;;1999.90;999.90;;;;;;;10.96;100.00;98563.44;4976923;28;20429;-73
2022/10/13 02:34:46;;;;;;;1999.90;999.90;;;;;;;10.86;100.00;98558.03;4978644;28;20148;-72
2022/10/13 02:37:11;;;;;;;1999.90;999.90;;;;;;;10.67;100.00;98561.41;4985547;28;20037;-72
2022/10/13 02:39:37;;;;;;;1999.90;999.90;;;;;;;10.56;100.00;98569.91;4971610;28;20023;-72
2022/10/13 02:42:02;;;;;;;1999.90;999.90;;;;;;;10.49;100.00;98564.78;4971463;28;20042;-72
2022/10/13 02:44:27;;;;;;;1999.90;999.90;;;;;;;10.37;100.00;98568.91;4972122;28;20030;-72
2022/10/13 02:46:53;;;;;;;1999.90;999.90;;;;;;;10.55;100.00;98565.56;4971781;28;20037;-73
2022/10/13 02:49:18;;;;;;;1999.90;999.90;;;;;;;10.64;100.00;98556.50;4972012;28;20035;-73
2022/10/13 02:51:43;;;;;;;1999.90;999.90;;;;;;;10.63;100.00;98563.06;4971986;28;20037;-73
2022/10/13 02:54:08;;;;;;;1999.90;999.90;;;;;;;10.63;100.00;98554.03;4971595;28;20058;-72
2022/10/13 02:56:34;;;;;;;1999.90;999.90;;;;;;;10.70;100.00;98560.84;4972003;28;20069;-72
2022/10/13 02:59:00;;;;;;;1999.90;999.90;;;;;;;10.80;100.00;98561.88;4972267;28;20117;-72
2022/10/13 03:01:25;;;;;;;1999.90;999.90;;;;;;;10.59;100.00;98553.75;4971475;28;20464;-72
2022/10/13 03:03:50;;;;;;;1999.90;999.90;;;;;;;10.46;100.00;98559.84;4971839;28;20031;-73
2022/10/13 03:06:16;;;;;;;1999.90;999.90;;;;;;;10.48;100.00;98562.31;4971785;28;20027;-73
2022/10/13 03:08:41;;;;;;;1999.90;999.90;;;;;;;10.19;100.00;98559.38;4971641;28;20142;-72
2022/10/13 03:11:06;;;;;;;1999.90;999.90;;;;;;;10.14;100.00;98560.25;4971527;28;20039;-73
2022/10/13 03:13:32;;;;;;;1999.90;999.90;;;;;;;10.26;100.00;98562.66;4971605;28;20391;-72
2022/10/13 03:15:57;;;;;;;1999.90;999.90;;;;;;;10.39;100.00;98564.81;4971689;28;20484;-72
2022/10/13 03:18:22;;;;;;;1999.90;999.90;;;;;;;10.40;100.00;98565.63;4972434;28;20031;-73
2022/10/13 03:20:59;;;;;;;1999.90;999.90;;;;;;;10.45;100.00;98551.94;4973637;28;20084;-73
2022/10/13 03:23:25;;;;;;;1999.90;999.90;;;;;;;10.43;100.00;98559.59;4973280;28;20035;-73
2022/10/13 03:25:50;;;;;;;1999.90;999.90;;;;;;;10.39;100.00;98564.81;4974673;28;20054;-72
2022/10/13 03:28:15;;;;;;;1999.90;999.90;;;;;;;10.44;100.00;98556.56;4974661;28;20772;-73
2022/10/13 03:30:40;;;;;;;1999.90;999.90;;;;;;;10.54;100.00;98562.00;4971701;28;20085;-73
2022/10/13 03:33:06;;;;;;;1999.90;999.90;;;;;;;10.61;100.00;98562.53;4971685;28;20573;-73
2022/10/13 03:35:31;;;;;;;1999.90;999.90;;;;;;;10.57;100.00;98564.19;4971568;28;20499;-72
2022/10/13 03:37:57;;;;;;;1999.90;999.90;;;;;;;10.61;100.00;98562.53;4971680;28;20031;-72
2022/10/13 03:40:23;;;;;;;1999.90;999.90;;;;;;;10.36;100.00;98565.38;4971550;28;20142;-72
2022/10/13 03:42:48;;;;;;;1999.90;999.90;;;;;;;10.51;100.00;98561.75;4971245;28;20161;-73
2022/10/13 03:45:14;;;;;;;1999.90;999.90;;;;;;;10.65;100.00;98558.13;4971612;28;20473;-72
2022/10/13 03:47:39;;;;;;;1999.90;999.90;;;;;;;10.29;100.00;98559.38;4971516;28;20071;-73
2022/10/13 03:50:05;;;;;;;1999.90;999.90;;;;;;;10.16;100.00;98551.75;4971624;28;20077;-72
2022/10/13 03:52:31;;;;;;;1999.90;999.90;;;;;;;10.27;100.00;98561.56;4971433;28;20744;-73
2022/10/13 03:54:56;;;;;;;1999.90;999.90;;;;;;;10.34;100.00;98562.06;4975019;28;20030;-72
2022/10/13 03:57:21;;;;;;;1999.90;999.90;;;;;;;10.38;100.00;98554.94;4990886;28;20528;-72
2022/10/13 03:59:47;;;;;;;1999.90;999.90;;;;;;;10.38;100.00;98554.94;4975862;28;20031;-73
2022/10/13 04:02:12;;;;;;;1999.90;999.90;;;;;;;10.54;100.00;98550.25;4970808;28;20023;-73
2022/10/13 04:04:38;;;;;;;1999.90;999.90;;;;;;;10.58;100.00;98548.59;4974668;28;20444;-73
2022/10/13 04:07:03;;;;;;;1999.90;999.90;;;;;;;10.42;100.00;98550.56;4976704;28;20130;-73
2022/10/13 04:09:29;;;;;;;1999.90;999.90;;;;;;;10.38;100.00;98556.88;4974818;28;20053;-73
2022/10/13 04:11:54;;;;;;;1999.90;999.90;;;;;;;10.47;100.00;98555.19;4971541;28;20059;-73
2022/10/13 04:14:19;;;;;;;1999.90;999.90;;;;;;;10.32;100.00;98558.81;4972544;28;20065;-73
2022/10/13 04:16:46;;;;;;;1999.90;999.90;;;;;;;10.38;100.00;98568.63;4974906;28;20034;-73
2022/10/13 04:19:12;;;;;;;1999.90;999.90;;;;;;;10.27;100.00;98561.56;4973694;28;20362;-72
2022/10/13 04:21:38;;;;;;;1999.90;999.90;;;;;;;10.12;100.00;98559.66;4974642;28;20038;-72
2022/10/13 04:24:04;;;;;;;1999.90;999.90;;;;;;;10.12;100.00;98548.72;4964706;28;20117;-72
2022/10/13 04:26:33;;;;;;;1999.90;999.90;;;;;;;10.07;100.00;98545.19;4955206;28;20051;-73
2022/10/13 04:29:00;;;;;;;1999.90;999.90;;;;;;;10.00;100.00;98547.38;4955851;28;20031;-73
2022/10/13 04:31:27;;;;;;;1999.90;999.90;;;;;;;9.98;100.00;98541.38;4955369;28;20067;-73
2022/10/13 04:33:53;;;;;;;1999.90;999.90;;;;;;;10.04;100.00;98541.09;4955212;28;20031;-72
2022/10/13 04:36:19;;;;;;;1999.90;999.90;;;;;;;10.25;100.00;98541.88;4955305;28;20154;-72
2022/10/13 04:38:45;;;;;;;1999.90;999.90;;;;;;;10.28;100.00;98541.31;4954957;28;20049;-73
2022/10/13 04:41:11;;;;;;;1999.90;999.90;;;;;;;10.36;100.00;98548.97;4955050;28;20132;-72
2022/10/13 04:43:37;;;;;;;1999.90;999.90;;;;;;;10.12;100.00;98542.41;4955030;28;20437;-73
2022/10/13 04:46:05;;;;;;;1999.90;999.90;;;;;;;10.15;100.00;98544.63;4967346;28;20034;-72
2022/10/13 04:48:30;;;;;;;1999.90;999.90;;;;;;;10.07;100.00;98545.19;4993467;28;20042;-72
2022/10/13 04:51:06;;;;;;;1999.90;999.90;;;;;;;10.08;100.00;98546.81;4993608;28;20032;-73
2022/10/13 04:53:31;;;;;;;1999.90;999.90;;;;;;;10.05;100.00;98545.47;4993459;28;20034;-73
2022/10/13 04:56:01;;;;;;;1999.90;999.90;;;;;;;10.01;100.00;98543.56;4993651;28;20034;-74
2022/10/13 04:58:27;;;;;;;1999.90;999.90;;;;;;;10.00;100.00;98540.00;4993909;28;20049;-73
2022/10/13 05:00:52;;;;;;;1999.90;999.90;;;;;;;10.01;100.00;98544.38;4993423;28;20027;-72
2022/10/13 05:03:17;;;;;;;1999.90;999.90;;;;;;;10.11;100.00;98541.63;4993609;28;20031;-74
2022/10/13 05:05:43;;;;;;;1999.90;999.90;;;;;;;10.16;100.00;98543.53;4993228;28;20530;-73
2022/10/13 05:08:08;;;;;;;1999.90;999.90;;;;;;;10.10;100.00;98547.34;4993287;28;20038;-73
2022/10/13 05:10:34;;;;;;;1999.90;999.90;;;;;;;9.98;100.00;98549.56;4993312;28;20054;-73
2022/10/13 05:12:59;;;;;;;1999.90;999.90;;;;;;;9.98;100.00;98553.13;4993645;28;20125;-74
2022/10/13 05:15:24;;;;;;;1999.90;999.90;;;;;;;10.08;100.00;98542.19;4993168;28;20030;-73
2022/10/13 05:17:50;;;;;;;1999.90;999.90;;;;;;;10.11;100.00;98554.47;4993060;28;20109;-74
2022/10/13 05:20:16;;;;;;;1999.90;999.90;;;;;;;10.27;100.00;98561.56;4981715;28;20023;-72
2022/10/13 05:22:42;;;;;;;1999.90;999.90;;;;;;;10.27;100.00;98567.03;4976499;28;20042;-73
2022/10/13 05:25:08;;;;;;;1999.90;999.90;;;;;;;10.43;100.00;98559.59;4982391;28;20051;-73
2022/10/13 05:27:33;;;;;;;1999.90;999.90;;;;;;;10.40;100.00;98565.63;4977246;28;20057;-72
2022/10/13 05:29:58;;;;;;;1999.90;999.90;;;;;;;10.46;100.00;98559.84;4980943;28;20125;-72
2022/10/13 05:32:24;;;;;;;1999.90;999.90;;;;;;;10.43;100.00;98554.91;4979261;28;20089;-73
2022/10/13 05:34:49;;;;;;;1999.90;999.90;;;;;;;10.39;100.00;98559.34;4979291;28;20469;-72
2022/10/13 05:37:16;;;;;;;1999.90;999.90;;;;;;;10.36;100.00;98565.38;4980190;28;20034;-72
2022/10/13 05:39:41;;;;;;;1999.90;999.90;;;;;;;10.35;100.00;98557.44;4980604;28;20404;-72
2022/10/13 05:42:07;;;;;;;1999.90;999.90;;;;;;;10.43;100.00;98565.88;4977441;28;20030;-74
2022/10/13 05:44:32;;;;;;;1999.90;999.90;;;;;;;10.62;100.00;98558.69;4980505;28;20415;-72
2022/10/13 05:46:58;;;;;;;1999.90;999.90;;;;;;;10.56;100.00;98565.28;4974274;28;20034;-73
2022/10/13 05:49:23;;;;;;;1999.90;999.90;;;;;;;10.52;100.00;98566.94;4973822;28;20038;-73
2022/10/13 05:51:54;;;;;;;1999.90;999.90;;;;;;;10.48;100.00;98563.13;4976627;28;20030;-72
2022/10/13 05:54:40;;;;;;;1999.90;999.90;;;;;;;10.28;100.00;98562.38;4978438;28;20481;-72
2022/10/13 05:57:12;;;;;;;1999.90;999.90;;;;;;;10.16;100.00;98559.94;4963037;28;20118;-74
2022/10/13 05:59:42;;;;;;;1999.90;999.90;;;;;;;10.13;100.00;98565.94;4980380;28;20120;-73
2022/10/13 06:02:11;;;;;;;1999.90;999.90;;;;;;;10.33;100.00;98574.13;4987136;28;20520;-74
2022/10/13 06:04:44;;;;;;;1999.90;999.90;;;;;;;10.31;100.00;98579.03;4991894;28;20030;-75
2022/10/13 06:07:10;;;;;;;1999.90;999.90;;;;;;;10.15;100.00;98585.63;4991851;28;21102;-72
2022/10/13 06:09:37;;;;;;;1999.90;999.90;;;;;;;9.97;100.00;98578.81;4991878;28;20042;-72
2022/10/13 06:12:04;;;;;;;1999.90;999.90;;;;;;;10.07;100.00;98580.72;4992044;28;20074;-72
2022/10/13 06:14:29;;;;;;;1999.90;999.90;;;;;;;9.98;100.00;98591.41;4976922;28;20027;-72
2022/10/13 06:16:55;;;;;;;1999.90;999.90;;;;;;;10.04;100.00;98584.81;4983119;28;20027;-72
2022/10/13 06:19:20;;;;;;;1999.90;999.90;;;;;;;10.20;100.00;98588.38;4976572;28;20023;-71
2022/10/13 06:21:46;;;;;;;1999.90;999.90;;;;;;;10.39;100.00;98586.69;4972254;28;20500;-72
2022/10/13 06:24:11;;;;;;;1999.90;999.90;;;;;;;10.38;100.00;98586.94;4972060;28;20027;-72
2022/10/13 06:26:36;;;;;;;1999.90;999.90;;;;;;;10.32;100.00;98586.16;4973508;28;20034;-72
2022/10/13 06:29:02;;;;;;;1999.90;999.90;;;;;;;10.30;100.00;98593.81;4973921;28;20046;-72
2022/10/13 06:31:27;;;;;;;1999.90;999.90;;;;;;;10.28;100.00;98576.84;4973691;28;21540;-72
2022/10/13 06:33:53;;;;;;;1999.90;999.90;;;;;;;10.22;100.00;98594.38;4971959;28;20103;-72
2022/10/13 06:36:19;;;;;;;1999.90;999.90;;;;;;;10.18;100.00;98596.84;4971128;28;20101;-72
2022/10/13 06:38:45;;;;;;;1999.90;999.90;;;;;;;10.24;100.00;98594.13;4971545;28;20109;-73
2022/10/13 06:41:13;;;;;;;1999.90;999.90;;;;;;;10.37;100.00;98599.78;4971747;28;20026;-75
2022/10/13 06:43:39;;;;;;;1999.90;999.90;;;;;;;10.44;100.00;98589.38;4975397;28;20040;-75
2022/10/13 06:46:04;;;;;;;1999.90;999.90;;;;;;;10.43;100.00;98593.22;4990125;28;20092;-75
2022/10/13 06:48:30;;;;;;;1999.90;999.90;;;;;;;10.50;100.00;98588.28;4990707;28;20113;-76
2022/10/13 06:51:03;;;;;;;1999.90;999.90;;;;;;;10.57;100.00;98590.72;4991723;28;20495;-76
2022/10/13 06:53:29;;;;;;;1999.90;999.90;;;;;;;10.59;100.00;98589.31;4993747;28;20036;-75
2022/10/13 06:56:03;;;;;;;1999.90;999.90;;;;;;;10.69;100.00;98592.03;4992863;28;20035;-74
2022/10/13 06:58:29;;;;;;;1999.90;999.90;;;;;;;10.67;100.00;98588.75;4991114;28;20509;-76
2022/10/13 07:00:55;;;;;;;1999.90;999.90;;;;;;;10.72;100.00;98594.19;4991155;28;20027;-76
2022/10/13 07:03:21;;;;;;;1999.90;999.90;;;;;;;10.81;100.00;98583.47;4990834;28;20141;-77
2022/10/13 07:05:46;;;;;;;1999.90;999.90;;;;;;;10.81;100.00;98590.91;4990931;28;20049;-76
2022/10/13 07:08:12;;;;;;;1999.90;999.90;;;;;;;10.85;100.00;98589.22;4990864;28;20050;-77
2022/10/13 07:10:38;;;;;;;1999.90;999.90;;;;;;;10.86;100.00;98590.88;4989291;28;20038;-76
2022/10/13 07:13:04;;;;;;;1999.90;999.90;;;;;;;10.80;100.00;98586.50;4991557;28;20020;-77
2022/10/13 07:15:30;;;;;;;1999.90;999.90;;;;;;;10.84;100.00;98585.66;4990797;28;20022;-76
2022/10/13 07:17:55;;;;;;;1999.90;999.90;;;;;;;10.85;100.00;98584.56;4991052;28;20117;-76
2022/10/13 07:20:21;;;;;;;1999.90;999.90;;;;;;;10.90;100.00;98579.06;4990833;28;20089;-76
2022/10/13 07:22:47;;;;;;;1999.90;999.90;;;;;;;10.80;100.00;98575.56;4990785;28;20026;-75
2022/10/13 07:25:14;;;;;;;1999.90;999.90;;;;;;;10.72;100.00;98577.78;4990669;28;20037;-75
2022/10/13 07:27:39;;;;;;;1999.90;999.90;;;;;;;10.63;100.00;98586.84;4990591;28;20118;-76
2022/10/13 07:30:07;;;;;;;1999.90;999.90;;;;;;;10.68;100.00;98576.69;4990990;28;20105;-76
2022/10/13 07:32:33;;;;;;;1999.90;999.90;;;;;;;10.55;100.00;98574.59;4991025;28;20035;-76
2022/10/13 07:34:59;;;;;;;1999.90;999.90;;;;;;;10.64;100.00;98581.13;4990905;28;20030;-77
2022/10/13 07:37:25;;;;;;;1999.90;999.90;;;;;;;10.81;100.00;98582.69;4991018;28;20105;-74
2022/10/13 07:39:50;;;;;;;1999.90;999.90;;;;;;;10.64;100.00;98583.84;4990853;28;20038;-77
2022/10/13 07:42:16;;;;;;;1999.90;999.90;;;;;;;10.92;100.00;98573.31;4990914;28;20081;-76
2022/10/13 07:44:41;;;;;;;1999.90;999.90;;;;;;;10.98;100.00;98577.66;4989781;28;20080;-77
2022/10/13 07:47:07;;;;;;;1999.90;999.90;;;;;;;11.08;100.00;98581.16;4991090;28;20030;-77
2022/10/13 07:49:32;;;;;;;1999.90;999.90;;;;;;;11.16;100.00;98577.81;4993949;28;20128;-75
2022/10/13 07:51:57;;;;;;;1999.90;999.90;;;;;;;11.16;100.00;98591.50;4994462;28;20633;-77
2022/10/13 07:54:23;;;;;;;1999.90;999.90;;;;;;;11.28;100.00;98593.88;4994449;28;20488;-75
2022/10/13 07:56:51;;;;;;;1999.90;999.90;;;;;;;11.36;100.00;98590.56;4994762;28;20545;-76
2022/10/13 07:59:17;;;;;;;1999.90;999.90;;;;;;;10.98;100.00;98600.38;4994726;28;20391;-75
2022/10/13 08:01:42;;;;;;;1999.90;999.90;;;;;;;10.82;100.00;98578.84;4996039;28;20094;-77
2022/10/13 08:04:08;;;;;;;1999.90;999.90;;;;;;;11.11;100.00;98596.19;4999283;28;20054;-76
2022/10/13 08:06:33;;;;;;;1999.90;999.90;;;;;;;11.43;100.00;98593.81;4999218;28;20061;-75
2022/10/13 08:08:59;;;;;;;1999.90;999.90;;;;;;;11.39;100.00;98589.16;4996587;28;20467;-75
2022/10/13 08:11:25;;;;;;;1999.90;999.90;;;;;;;11.62;100.00;98594.72;4994450;28;20041;-77
2022/10/13 08:13:51;;;;;;;1999.90;999.90;;;;;;;11.77;100.00;98580.13;4994394;28;20050;-75
2022/10/13 08:16:17;;;;;;;1999.90;999.90;;;;;;;11.74;100.00;98581.53;4994419;28;20034;-76
2022/10/13 08:18:43;;;;;;;1999.90;999.90;;;;;;;11.76;100.00;98582.06;4994133;28;20464;-76
2022/10/13 08:21:12;;;;;;;1999.90;999.90;;;;;;;11.74;100.00;98576.06;4994515;28;20031;-76
2022/10/13 08:23:38;;;;;;;1999.90;999.90;;;;;;;12.05;100.00;98578.50;4996376;28;20034;-76
2022/10/13 08:26:03;;;;;;;1999.90;999.90;;;;;;;12.14;100.00;98574.00;4996759;28;20030;-76
2022/10/13 08:28:29;;;;;;;1999.90;999.90;;;;;;;12.15;100.00;98567.44;4994996;28;20023;-76
2022/10/13 08:30:58;;;;;;;1999.90;999.90;;;;;;;12.14;100.00;98568.53;4994017;28;20065;-76
2022/10/13 08:33:24;;;;;;;1999.90;999.90;;;;;;;12.17;100.00;98568.78;4993985;28;20030;-76
2022/10/13 08:35:49;;;;;;;1999.90;999.90;;;;;;;12.38;100.00;98566.59;4994098;28;20117;-76
2022/10/13 08:38:15;;;;;;;1999.90;999.90;;;;;;;12.67;100.00;98569.28;4993615;28;20036;-76
2022/10/13 08:40:45;;;;;;;1999.90;999.90;;;;;;;12.48;100.00;98569.25;4993959;28;20045;-76
2022/10/13 08:43:15;;;;;;;1999.90;999.90;;;;;;;12.77;100.00;98558.19;4993797;28;20503;-76
2022/10/13 08:45:41;;;;;;;1999.90;999.90;;;;;;;12.74;100.00;98562.34;4993822;28;20034;-76
2022/10/13 08:48:15;;;;;;;1999.90;999.90;;;;;;;13.17;100.00;98571.38;4993850;28;20030;-76
2022/10/13 08:50:45;;;;;;;1999.90;999.90;;;;;;;13.31;100.00;98558.50;4993730;28;20451;-76
2022/10/13 08:53:24;;;;;;;1999.90;999.90;;;;;;;13.28;100.00;98552.81;4993607;28;20034;-76
2022/10/13 08:55:55;;;;;;;1999.90;999.90;;;;;;;13.35;100.00;98561.50;4993566;28;20057;-76
2022/10/13 08:58:32;;;;;;;1999.90;999.90;;;;;;;13.50;100.00;98558.50;4993474;28;20080;-76
2022/10/13 09:00:57;;;;;;;1999.90;999.90;;;;;;;13.70;100.00;98569.16;4992597;28;20031;-76
2022/10/13 09:03:28;;;;;;;1999.90;999.90;;;;;;;13.82;100.00;98572.25;4993299;28;20502;-76
2022/10/13 09:06:14;;;;;;;1999.90;999.90;;;;;;;13.94;100.00;98561.59;4993353;28;20034;-75
2022/10/13 09:08:42;;;;;;;;;;;;;;;13.46;100.00;98560.22;4993761;28;20137;-76
2022/10/13 09:11:10;;;;;;;1999.90;999.90;;;;;;;12.57;100.00;98562.00;4993136;28;19972;-76
2022/10/13 09:13:35;;;;;;;1999.90;999.90;;;;;;;12.63;100.00;98552.59;4993111;28;20042;-75
2022/10/13 09:16:00;;;;;;;1999.90;999.90;;;;;;;13.00;100.00;98559.25;4993070;28;20039;-76
2022/10/13 09:18:29;;;;;;;1999.90;999.90;;;;;;;13.77;100.00;98564.13;4993069;28;20044;-76
2022/10/13 09:21:15;;;;;;;1999.90;999.90;;;;;;;14.22;100.00;98565.22;4993090;28;20034;-76
2022/10/13 09:23:41;;;;;;;1999.90;999.90;;;;;;;13.88;100.00;98565.56;4992997;28;20040;-76
2022/10/13 09:26:15;;;;;;;1999.90;999.90;;;;;;;13.83;100.00;98565.66;4992750;28;20022;-76
2022/10/13 09:28:40;;;;;;;1999.90;999.90;;;;;;;14.83;100.00;98567.59;4993096;28;20503;-76
2022/10/13 09:31:16;;;;;;;1999.90;999.90;;;;;;;15.36;100.00;98566.97;4992995;28;20023;-76
2022/10/13 09:33:42;;;;;;;1999.90;999.90;;;;;;;15.65;100.00;98566.59;4992896;28;20058;-75
2022/10/13 09:36:12;;;;;;;1999.90;999.90;;;;;;;16.53;100.00;98568.41;4992845;28;20102;-76
2022/10/13 09:38:40;;;;;;;1999.90;999.90;;;;;;;17.96;100.00;98566.50;4992642;28;20514;-77
2022/10/13 09:41:08;;;;;;;1999.90;999.90;;;;;;;18.70;100.00;98576.06;4992762;28;20030;-76
2022/10/13 09:43:35;;;;;;;1999.90;999.90;;;;;;;20.13;91.97;98581.25;4991529;28;20126;-77
2022/10/13 09:46:09;;;;;;;1999.90;999.90;;;;;;;20.90;81.74;98584.31;4971880;28;20511;-77
2022/10/13 09:48:36;;;;;;;1999.90;999.90;;;;;;;21.60;78.24;98580.19;4974889;28;20097;-77
2022/10/13 09:51:01;;;;;;;1999.90;999.90;;;;;;;22.14;71.63;98573.06;4977982;28;20050;-76
2022/10/13 09:53:37;;;;;;;1999.90;999.90;;;;;;;22.09;72.12;98578.88;4980568;28;20023;-75
2022/10/13 09:56:14;;;;;;;1999.90;999.90;;;;;;;22.05;71.14;98569.63;4958623;28;20062;-74
2022/10/13 09:58:47;;;;;;;1999.90;999.90;;;;;;;22.36;66.42;98558.53;4977532;28;20027;-75
2022/10/13 10:01:26;;;;;;;1999.90;999.90;;;;;;;21.44;70.39;98571.75;4967902;28;20043;-74
2022/10/13 10:03:53;;;;;;;1999.90;999.90;;;;;;;21.95;66.30;98556.19;4980533;28;20037;-74
2022/10/13 10:06:19;;;;;;;1999.90;999.90;;;;;;;21.75;66.88;98554.38;4979602;28;20038;-74
2022/10/13 10:08:54;;;;;;;1999.90;999.90;;;;;;;20.80;71.35;98552.19;4981466;28;20019;-75
2022/10/13 10:11:41;;;;;;;1999.90;999.90;;;;;;;21.45;70.03;98555.88;4974245;28;20046;-74
2022/10/13 10:14:26;;;;;;;1999.90;999.90;;;;;;;21.05;71.31;98551.03;4978905;28;20503;-74
2022/10/13 10:17:12;;;;;;;;;;;;;;;21.58;68.70;98547.13;4973756;28;20034;-76
2022/10/13 10:19:55;;;;;;;1999.90;999.90;;;;;;;21.04;69.41;98546.63;4977851;28;19924;-74
2022/10/13 10:22:41;;;;;;;1999.90;999.90;;;;;;;21.02;70.49;98548.94;4979785;28;20155;-75
2022/10/13 10:25:18;;;;;;;1999.90;999.90;;;;;;;21.10;70.33;98550.03;4977894;28;20050;-75
2022/10/13 10:28:08;;;;;;;1999.90;999.90;;;;;;;21.88;67.16;98544.81;4979664;28;20057;-74
2022/10/13 10:30:42;;;;;;;1999.90;999.90;;;;;;;20.82;70.67;98536.81;4977629;28;20034;-75
2022/10/13 10:33:12;;;;;;;1999.90;999.90;;;;;;;21.48;69.35;98528.16;4978356;28;20370;-76
2022/10/13 10:35:45;;;;;;;1999.90;999.90;;;;;;;22.03;65.28;98530.13;4984719;28;20080;-74
2022/10/13 10:38:34;;;;;;;1999.90;999.90;;;;;;;22.43;64.17;98528.03;4979843;28;20390;-75
2022/10/13 10:41:15;;;;;;;1999.90;999.90;;;;;;;22.04;65.51;98525.38;4978313;28;20053;-76
2022/10/13 10:43:51;;;;;;;1999.90;999.90;;;;;;;22.73;63.19;98527.63;4973836;28;20034;-75
2022/10/13 10:46:21;;;;;;;1999.90;999.90;;;;;;;23.06;61.58;98525.22;4980254;28;20018;-76
2022/10/13 10:48:49;;;;;;;1999.90;999.90;;;;;;;22.62;63.59;98512.56;4976193;28;20026;-76
2022/10/13 10:51:16;;;;;;;1999.90;999.90;;;;;;;22.71;62.43;98502.06;4981907;28;20033;-76
2022/10/13 10:53:48;;;;;;;1999.90;999.90;;;;;;;22.50;63.33;98493.94;4979339;28;20029;-75
2022/10/13 10:56:32;;;;;;;1999.90;999.90;;;;;;;22.68;63.21;98498.00;4980322;28;20038;-76